Time;durP1;ratioP1;P1;durP2;ratioP2;P2;SDS_P1;SDS_P2;PMS_P1;PMS_P2;Temp;Humidity;BMP_temperature;BMP_pressure;BME280_temperature;BME280_humidity;BME280_pressure;Samples;Min_cycle;Max_cycle;Signal;HPM_P1;HPM_P2
2022/07/09 00:01:38;;;;;;;7.07;3.50;;;;;;;18.63;49.24;98582.50;5070255;28;20435;-70
2022/07/09 00:04:04;;;;;;;6.10;3.60;;;;;;;18.54;49.38;98576.41;5067597;28;20209;-72
2022/07/09 00:06:31;;;;;;;5.63;3.23;;;;;;;18.56;49.60;98571.75;5062090;28;20688;-69
2022/07/09 00:08:57;;;;;;;4.77;3.60;;;;;;;18.58;49.42;98574.25;5070367;28;20186;-69
2022/07/09 00:11:23;;;;;;;7.40;2.90;;;;;;;18.54;49.92;98576.41;5071131;28;20516;-69
2022/07/09 00:13:48;;;;;;;3.33;2.93;;;;;;;18.50;49.79;98575.09;5070873;28;20524;-70
2022/07/09 00:16:13;;;;;;;6.17;3.40;;;;;;;18.51;49.97;98565.28;5061590;28;20210;-69
2022/07/09 00:18:39;;;;;;;6.80;3.37;;;;;;;18.41;50.21;98566.31;5068062;28;20541;-69
2022/07/09 00:21:05;;;;;;;4.03;3.10;;;;;;;18.42;50.17;98564.47;5066177;28;20186;-70
2022/07/09 00:23:30;;;;;;;6.20;3.53;;;;;;;18.39;50.29;98562.19;5068373;28;20186;-70
2022/07/09 00:25:55;;;;;;;5.20;2.97;;;;;;;18.39;50.06;98555.03;5063372;28;20631;-68
2022/07/09 00:28:21;;;;;;;6.10;3.30;;;;;;;18.38;50.15;98558.69;5068220;28;20180;-70
2022/07/09 00:30:46;;;;;;;7.13;3.57;;;;;;;18.30;50.21;98563.19;5075996;28;20591;-71
2022/07/09 00:33:12;;;;;;;6.00;2.77;;;;;;;18.27;50.22;98551.91;5061877;28;20186;-69
2022/07/09 00:35:37;;;;;;;5.80;3.07;;;;;;;18.33;50.20;98550.44;5071772;28;20207;-69
2022/07/09 00:38:03;;;;;;;4.93;2.83;;;;;;;18.31;50.30;98556.88;5066044;28;20182;-68
2022/07/09 00:40:28;;;;;;;5.20;3.23;;;;;;;18.25;50.50;98555.72;5068688;28;20193;-69
2022/07/09 00:42:54;;;;;;;5.03;2.93;;;;;;;18.23;50.21;98545.28;5065594;28;20213;-71
2022/07/09 00:45:19;;;;;;;7.93;2.93;;;;;;;18.16;50.39;98546.94;5067886;28;20215;-69
2022/07/09 00:47:45;;;;;;;7.87;3.10;;;;;;;18.07;50.71;98542.66;5061899;28;20239;-69
2022/07/09 00:50:11;;;;;;;5.57;3.53;;;;;;;18.05;51.03;98542.00;5061501;28;20191;-69
2022/07/09 00:52:38;;;;;;;4.43;3.10;;;;;;;18.06;50.74;98539.19;5067830;28;20186;-70
2022/07/09 00:55:05;;;;;;;7.80;3.10;;;;;;;17.98;51.21;98535.72;5064332;28;20201;-69
2022/07/09 00:57:31;;;;;;;9.30;3.07;;;;;;;18.05;51.01;98534.03;5059061;28;20447;-69
2022/07/09 00:59:57;;;;;;;5.10;2.70;;;;;;;18.06;51.06;98525.09;5065351;28;20424;-71
2022/07/09 01:02:23;;;;;;;7.70;2.57;;;;;;;18.04;51.05;98524.41;5067142;28;20417;-69
2022/07/09 01:04:48;;;;;;;4.17;2.70;;;;;;;18.10;50.93;98510.50;5066768;28;20545;-70
2022/07/09 01:07:14;;;;;;;4.50;2.80;;;;;;;18.15;50.50;98520.59;5072575;28;20602;-69
2022/07/09 01:09:39;;;;;;;2.93;2.50;;;;;;;18.17;50.73;98522.06;5064556;28;20217;-69
2022/07/09 01:12:07;;;;;;;4.23;2.40;;;;;;;18.15;50.42;98524.06;5071281;28;20187;-69
2022/07/09 01:14:32;;;;;;;8.20;3.07;;;;;;;18.15;50.11;98517.94;5070177;28;20661;-69
2022/07/09 01:17:03;;;;;;;3.00;2.43;;;;;;;18.16;50.54;98515.09;5071006;28;20487;-69
2022/07/09 01:19:30;;;;;;;15.40;3.17;;;;;;;18.16;50.73;98517.75;5064755;28;20186;-69
2022/07/09 01:21:56;;;;;;;3.83;2.60;;;;;;;18.16;50.62;98517.75;5073036;28;20440;-71
2022/07/09 01:24:22;;;;;;;5.50;3.10;;;;;;;18.08;50.46;98512.50;5071503;28;21124;-69
2022/07/09 01:26:48;;;;;;;6.50;2.90;;;;;;;17.97;51.02;98513.66;5071934;28;20447;-71
2022/07/09 01:29:14;;;;;;;6.77;3.03;;;;;;;17.92;51.16;98511.47;5068519;28;20966;-70
2022/07/09 01:31:39;;;;;;;7.47;3.10;;;;;;;17.86;51.22;98522.78;5074678;28;20194;-68
2022/07/09 01:34:05;;;;;;;5.73;3.70;;;;;;;17.85;51.36;98509.66;5072437;28;20198;-70
2022/07/09 01:36:30;;;;;;;6.10;2.93;;;;;;;17.82;51.53;98505.53;5074299;28;20194;-68
2022/07/09 01:38:56;;;;;;;5.60;3.00;;;;;;;17.78;51.59;98510.34;5072847;28;20703;-70
2022/07/09 01:41:21;;;;;;;6.00;3.23;;;;;;;17.75;51.64;98501.91;5072905;28;20218;-70
2022/07/09 01:43:47;;;;;;;6.47;3.10;;;;;;;17.69;51.68;98506.03;5078318;28;20221;-72
2022/07/09 01:46:12;;;;;;;7.23;3.37;;;;;;;17.64;51.84;98506.50;5069529;28;20252;-70
2022/07/09 01:48:42;;;;;;;6.10;2.80;;;;;;;17.66;52.12;98499.22;5072847;28;20178;-70
2022/07/09 01:51:09;;;;;;;4.20;3.00;;;;;;;17.68;52.09;98504.38;5072508;28;20189;-70
2022/07/09 01:53:35;;;;;;;3.30;2.83;;;;;;;17.67;51.69;98494.78;5072663;28;20420;-70
2022/07/09 01:56:08;;;;;;;4.10;3.10;;;;;;;17.61;52.07;98498.91;5054723;28;20441;-69
2022/07/09 01:58:34;;;;;;;7.60;2.97;;;;;;;17.63;52.05;98496.09;5068630;28;21000;-68
2022/07/09 02:00:59;;;;;;;5.03;2.70;;;;;;;17.58;52.12;98493.13;5072703;28;20429;-69
2022/07/09 02:03:25;;;;;;;4.67;2.93;;;;;;;17.57;52.24;98494.13;5072278;28;20226;-69
2022/07/09 02:05:50;;;;;;;6.70;2.70;;;;;;;17.47;52.67;98491.63;5078852;28;20224;-69
2022/07/09 02:08:16;;;;;;;3.67;2.97;;;;;;;17.47;52.54;98492.44;5073702;28;20185;-70
2022/07/09 02:10:41;;;;;;;4.40;3.07;;;;;;;17.44;52.42;98489.28;5072067;28;20290;-69
2022/07/09 02:13:07;;;;;;;6.47;3.10;;;;;;;17.39;52.40;98478.38;5075077;28;20187;-71
2022/07/09 02:15:32;;;;;;;3.50;2.90;;;;;;;17.33;52.63;98483.34;5072493;28;20217;-70
2022/07/09 02:17:58;;;;;;;4.07;2.70;;;;;;;17.29;52.87;98483.84;5071774;28;20252;-71
2022/07/09 02:20:24;;;;;;;5.00;2.90;;;;;;;17.28;53.08;98480.34;5069388;28;20803;-70
2022/07/09 02:22:50;;;;;;;8.53;3.57;;;;;;;17.32;52.87;98481.66;5068880;28;20205;-71
2022/07/09 02:25:15;;;;;;;6.17;3.40;;;;;;;17.27;53.01;98486.63;5071469;28;20471;-69
2022/07/09 02:27:41;;;;;;;6.17;3.40;;;;;;;17.27;52.97;98480.50;5072628;28;20190;-71
2022/07/09 02:30:07;;;;;;;5.67;3.50;;;;;;;17.27;52.87;98486.63;5076172;28;20182;-70
2022/07/09 02:32:32;;;;;;;6.30;3.30;;;;;;;17.21;53.14;98482.00;5071704;28;20645;-69
2022/07/09 02:34:58;;;;;;;4.47;3.07;;;;;;;17.18;53.09;98484.97;5081093;28;20452;-69
2022/07/09 02:37:23;;;;;;;4.13;3.00;;;;;;;17.04;53.48;98481.97;5070889;28;20206;-70
2022/07/09 02:39:49;;;;;;;5.50;3.10;;;;;;;17.07;53.59;98485.28;5071353;28;20190;-70
2022/07/09 02:42:14;;;;;;;4.67;3.40;;;;;;;17.13;53.45;98482.81;5077707;28;20206;-69
2022/07/09 02:44:43;;;;;;;6.67;3.07;;;;;;;17.12;53.19;98473.22;5071390;28;20190;-70
2022/07/09 02:47:08;;;;;;;7.43;2.83;;;;;;;17.11;53.33;98471.53;5071146;28;20275;-69
2022/07/09 02:49:34;;;;;;;4.90;3.00;;;;;;;17.07;53.64;98480.84;5071218;28;20915;-70
2022/07/09 02:52:01;;;;;;;5.13;3.20;;;;;;;17.10;53.43;98475.19;5071405;28;20190;-71
2022/07/09 02:54:30;;;;;;;5.80;3.40;;;;;;;17.03;53.40;98485.59;5070996;28;20263;-70
2022/07/09 02:56:55;;;;;;;3.90;3.23;;;;;;;17.05;53.52;98477.50;5066139;28;20453;-69
2022/07/09 02:59:21;;;;;;;3.90;3.33;;;;;;;17.04;53.67;98478.50;5071375;28;20515;-70
2022/07/09 03:01:47;;;;;;;3.03;2.67;;;;;;;17.09;53.69;98475.34;5071274;28;20209;-69
2022/07/09 03:04:12;;;;;;;5.30;2.90;;;;;;;17.07;53.62;98479.97;5070969;28;20553;-71
2022/07/09 03:06:38;;;;;;;5.10;2.73;;;;;;;17.01;53.58;98484.94;5070689;28;20476;-69
2022/07/09 03:09:04;;;;;;;5.27;3.10;;;;;;;16.94;53.85;98478.63;5071335;28;20182;-70
2022/07/09 03:11:29;;;;;;;9.10;3.37;;;;;;;16.85;53.99;98482.22;5066545;28;20216;-69
2022/07/09 03:13:55;;;;;;;4.27;3.20;;;;;;;16.79;54.22;98477.56;5070914;28;20466;-70
2022/07/09 03:16:20;;;;;;;6.67;3.17;;;;;;;16.77;54.43;98476.88;5070508;28;20195;-69
2022/07/09 03:18:46;;;;;;;4.13;3.30;;;;;;;16.82;54.34;98482.53;5070997;28;20237;-70
2022/07/09 03:21:11;;;;;;;6.33;3.10;;;;;;;16.83;54.36;98478.91;5068296;28;20179;-71
2022/07/09 03:23:37;;;;;;;6.63;3.20;;;;;;;16.81;54.42;98480.88;5070953;28;20178;-69
2022/07/09 03:26:06;;;;;;;6.50;3.40;;;;;;;16.85;54.14;98482.22;5070272;28;20245;-69
2022/07/09 03:28:33;;;;;;;6.50;3.40;;;;;;;16.79;54.18;98480.22;5062402;28;20523;-69
2022/07/09 03:30:58;;;;;;;5.30;3.23;;;;;;;16.74;54.33;98481.53;5064212;28;20441;-69
2022/07/09 03:33:24;;;;;;;6.00;3.30;;;;;;;16.73;54.44;98482.53;5082974;28;20444;-70
2022/07/09 03:35:49;;;;;;;6.30;3.37;;;;;;;16.72;54.41;98480.03;5076142;28;20245;-69
2022/07/09 03:38:15;;;;;;;4.70;3.37;;;;;;;16.72;54.49;98485.31;5055452;28;20179;-69
2022/07/09 03:40:40;;;;;;;5.40;3.10;;;;;;;16.67;54.61;98480.50;5082252;28;20182;-71
2022/07/09 03:43:06;;;;;;;3.50;2.53;;;;;;;16.63;54.30;98484.50;5082951;28;20183;-69
2022/07/09 03:45:31;;;;;;;5.10;3.20;;;;;;;16.57;54.70;98485.94;5081803;28;20245;-68
2022/07/09 03:47:57;;;;;;;5.80;3.23;;;;;;;16.63;54.59;98484.50;5087334;28;20181;-68
2022/07/09 03:50:22;;;;;;;6.67;3.03;;;;;;;16.58;54.68;98486.78;5089445;28;20182;-69
2022/07/09 03:52:48;;;;;;;9.33;3.27;;;;;;;16.54;54.92;98485.41;5081149;28;20186;-70
2022/07/09 03:55:13;;;;;;;4.50;2.77;;;;;;;16.46;55.28;98488.84;5087362;28;20178;-68
2022/07/09 03:57:40;;;;;;;4.70;3.00;;;;;;;16.53;55.26;98494.34;5089475;28;20205;-68
2022/07/09 04:00:06;;;;;;;3.07;2.77;;;;;;;16.50;55.13;98494.69;5090580;28;20874;-69
2022/07/09 04:02:32;;;;;;;5.60;3.17;;;;;;;16.47;55.26;98489.69;5090522;28;20797;-72
2022/07/09 04:04:58;;;;;;;4.57;3.17;;;;;;;16.50;55.32;98482.28;5093889;28;20455;-68
2022/07/09 04:07:26;;;;;;;5.13;3.40;;;;;;;16.55;55.22;98487.94;5090275;28;20294;-69
2022/07/09 04:09:54;;;;;;;5.40;2.97;;;;;;;16.65;55.07;98493.06;5081102;28;20435;-69
2022/07/09 04:12:20;;;;;;;4.73;3.07;;;;;;;16.69;54.86;98501.53;5090399;28;20977;-68
2022/07/09 04:14:46;;;;;;;4.57;3.47;;;;;;;16.70;55.04;98496.06;5089659;28;20510;-69
2022/07/09 04:17:11;;;;;;;4.77;3.20;;;;;;;16.63;55.14;98495.06;5089729;28;20520;-69
2022/07/09 04:19:37;;;;;;;6.40;3.17;;;;;;;16.67;54.99;98499.03;5085802;28;20292;-71
2022/07/09 04:22:03;;;;;;;9.40;3.40;;;;;;;16.69;55.29;98504.19;5092128;28;20188;-69
2022/07/09 04:24:29;;;;;;;4.80;3.30;;;;;;;16.65;55.51;98500.19;5087750;28;20250;-70
2022/07/09 04:26:54;;;;;;;6.13;2.93;;;;;;;16.70;55.55;98498.72;5092464;28;20909;-69
2022/07/09 04:29:20;;;;;;;4.93;3.03;;;;;;;16.78;55.48;98505.88;5086975;28;20252;-69
2022/07/09 04:31:45;;;;;;;5.93;3.70;;;;;;;16.80;55.30;98500.41;5083526;28;20178;-70
2022/07/09 04:34:11;;;;;;;4.53;2.97;;;;;;;16.80;55.02;98508.34;5089118;28;20205;-69
2022/07/09 04:36:36;;;;;;;3.60;3.23;;;;;;;16.81;55.12;98508.19;5085976;28;20331;-69
2022/07/09 04:39:02;;;;;;;5.30;3.30;;;;;;;16.86;54.87;98511.19;5087508;28;20196;-70
2022/07/09 04:41:28;;;;;;;4.50;3.17;;;;;;;16.92;55.18;98504.41;5085996;28;20272;-71
2022/07/09 04:43:54;;;;;;;3.77;3.37;;;;;;;16.92;55.31;98504.41;5092435;28;20542;-68
2022/07/09 04:46:21;;;;;;;3.90;3.60;;;;;;;16.90;55.60;98503.75;5088577;28;21026;-72
2022/07/09 04:48:47;;;;;;;9.10;3.30;;;;;;;16.84;55.76;98507.03;5093270;28;20192;-70
2022/07/09 04:51:12;;;;;;;3.70;3.33;;;;;;;16.87;55.72;98506.72;5084028;28;20431;-69
2022/07/09 04:53:38;;;;;;;5.87;3.33;;;;;;;16.93;55.98;98506.06;5079286;28;20255;-70
2022/07/09 04:56:03;;;;;;;8.30;3.30;;;;;;;16.98;55.70;98506.47;5087963;28;20221;-70
2022/07/09 04:58:29;;;;;;;7.93;3.80;;;;;;;17.03;55.81;98506.78;5085055;28;20704;-69
2022/07/09 05:00:54;;;;;;;5.93;3.47;;;;;;;17.14;55.58;98510.13;5089583;28;20173;-69
2022/07/09 05:03:20;;;;;;;3.83;3.33;;;;;;;17.24;55.51;98508.16;5085515;28;20190;-70
2022/07/09 05:05:45;;;;;;;4.73;3.80;;;;;;;17.28;54.95;98498.06;5087684;28;20237;-68
2022/07/09 05:08:11;;;;;;;5.00;3.33;;;;;;;17.33;54.50;98493.94;5080818;28;20190;-68
2022/07/09 05:10:36;;;;;;;4.60;3.70;;;;;;;17.35;54.14;98502.56;5083701;28;20273;-70
2022/07/09 05:13:02;;;;;;;4.60;3.50;;;;;;;17.40;54.09;98501.22;5084535;28;20178;-68
2022/07/09 05:15:30;;;;;;;7.70;3.70;;;;;;;17.47;53.41;98502.22;5083811;28;20178;-68
2022/07/09 05:17:56;;;;;;;8.13;3.87;;;;;;;17.46;53.34;98500.56;5081576;28;20190;-68
2022/07/09 05:20:21;;;;;;;7.30;3.63;;;;;;;17.60;53.81;98493.75;5086796;28;20420;-69
2022/07/09 05:22:48;;;;;;;3.97;3.20;;;;;;;17.76;54.02;98501.72;5081730;28;20190;-69
2022/07/09 05:25:13;;;;;;;6.37;3.67;;;;;;;17.88;53.86;98499.56;5086973;28;20288;-69
2022/07/09 05:27:43;;;;;;;6.33;3.27;;;;;;;18.02;53.52;98495.41;5085338;28;20443;-69
2022/07/09 05:30:09;;;;;;;5.50;3.33;;;;;;;18.16;53.58;98491.22;5083000;28;20525;-69
2022/07/09 05:32:35;;;;;;;6.70;3.43;;;;;;;18.30;53.37;98494.19;5076070;28;20432;-69
2022/07/09 05:35:00;;;;;;;5.13;3.10;;;;;;;18.38;53.13;98492.34;5082255;28;20429;-69
2022/07/09 05:37:25;;;;;;;6.20;3.33;;;;;;;18.46;52.47;98496.78;5075806;28;20245;-69
2022/07/09 05:39:51;;;;;;;3.57;3.20;;;;;;;18.56;52.69;98491.28;5072325;28;20186;-68
2022/07/09 05:42:16;;;;;;;5.30;3.77;;;;;;;18.69;52.23;98494.22;5078381;28;20207;-70
2022/07/09 05:44:42;;;;;;;4.77;3.30;;;;;;;18.80;52.01;98492.19;5072034;28;20186;-70
2022/07/09 05:47:07;;;;;;;4.60;3.40;;;;;;;18.96;51.96;98493.94;5071172;28;20685;-69
2022/07/09 05:49:33;;;;;;;6.60;3.40;;;;;;;19.09;51.44;98499.50;5072211;28;20183;-69
2022/07/09 05:51:58;;;;;;;6.90;3.20;;;;;;;19.19;50.01;98497.44;5070839;28;20190;-72
2022/07/09 05:54:24;;;;;;;7.73;3.37;;;;;;;19.28;49.96;98494.75;5071574;28;20190;-68
2022/07/09 05:56:50;;;;;;;5.73;3.50;;;;;;;19.43;50.37;98492.94;5071863;28;20636;-68
2022/07/09 05:59:16;;;;;;;7.10;3.67;;;;;;;19.51;50.14;98499.22;5072233;28;20246;-68
2022/07/09 06:01:42;;;;;;;5.53;3.20;;;;;;;19.60;49.71;98503.47;5072202;28;20449;-69
2022/07/09 06:04:08;;;;;;;3.63;3.00;;;;;;;19.71;49.72;98500.38;5072168;28;20229;-68
2022/07/09 06:06:34;;;;;;;5.63;2.60;;;;;;;19.85;49.58;98503.25;5071880;28;20998;-70
2022/07/09 06:08:59;;;;;;;6.77;4.60;;;;;;;19.99;48.79;98502.50;5072671;28;20183;-68
2022/07/09 06:11:25;;;;;;;9.53;3.90;;;;;;;20.09;48.34;98497.72;5073632;28;20232;-68
2022/07/09 06:13:50;;;;;;;15.93;8.30;;;;;;;20.24;48.14;98495.06;5072606;28;20193;-69
2022/07/09 06:16:16;;;;;;;7.83;5.03;;;;;;;20.39;48.04;98497.75;5071080;28;20219;-70
2022/07/09 06:18:41;;;;;;;15.10;10.93;;;;;;;20.53;47.93;98492.59;5071864;28;20733;-69
2022/07/09 06:21:07;;;;;;;19.17;16.10;;;;;;;20.64;47.28;98505.44;5069220;28;20189;-70
2022/07/09 06:23:32;;;;;;;10.33;5.60;;;;;;;20.76;47.09;98497.00;5072246;28;20186;-71
2022/07/09 06:25:58;;;;;;;14.33;6.63;;;;;;;20.81;46.36;98491.91;5070428;28;20209;-68
2022/07/09 06:28:23;;;;;;;6.60;3.93;;;;;;;20.90;46.36;98490.81;5071189;28;20187;-67
2022/07/09 06:30:49;;;;;;;9.73;7.10;;;;;;;20.97;46.45;98485.56;5075522;28;20186;-71
2022/07/09 06:33:14;;;;;;;12.37;3.20;;;;;;;20.97;44.88;98494.38;5071247;28;20198;-69
2022/07/09 06:35:40;;;;;;;16.00;4.93;;;;;;;21.12;45.31;98491.66;5073566;28;20692;-69
2022/07/09 06:38:05;;;;;;;12.43;6.87;;;;;;;21.24;45.73;98489.31;5063958;28;20193;-70
2022/07/09 06:40:31;;;;;;;4.40;2.77;;;;;;;21.25;44.58;98493.66;5071429;28;20727;-69
2022/07/09 06:42:56;;;;;;;6.57;3.00;;;;;;;21.32;44.23;98491.03;5077879;28;20213;-70
2022/07/09 06:45:22;;;;;;;5.57;2.80;;;;;;;21.40;44.01;98482.91;5064340;28;20199;-71
2022/07/09 06:47:47;;;;;;;9.80;3.70;;;;;;;21.46;43.70;98481.31;5059591;28;20266;-70
2022/07/09 06:50:13;;;;;;;6.27;2.97;;;;;;;21.55;43.81;98482.00;5061806;28;20198;-70
2022/07/09 06:52:38;;;;;;;9.43;3.73;;;;;;;21.60;43.47;98483.13;5068434;28;20190;-70
2022/07/09 06:55:04;;;;;;;8.70;3.10;;;;;;;21.67;43.78;98493.84;5059975;28;20224;-69
2022/07/09 06:57:30;;;;;;;6.80;2.70;;;;;;;21.76;43.77;98486.53;5063535;28;20279;-68
2022/07/09 06:59:56;;;;;;;8.10;2.60;;;;;;;21.81;43.48;98478.75;5061329;28;20191;-70
2022/07/09 07:02:21;;;;;;;7.43;3.23;;;;;;;21.89;43.44;98486.63;5055646;28;20667;-70
2022/07/09 07:04:47;;;;;;;6.73;2.80;;;;;;;21.99;43.80;98486.25;5065174;28;20420;-69
2022/07/09 07:07:12;;;;;;;12.83;2.97;;;;;;;22.15;43.66;98478.97;5054478;28;20202;-70
2022/07/09 07:09:38;;;;;;;5.50;2.50;;;;;;;22.31;42.78;98480.50;5067045;28;20197;-71
2022/07/09 07:12:04;;;;;;;8.27;2.63;;;;;;;22.50;42.84;98476.31;5059768;28;20709;-71
2022/07/09 07:14:29;;;;;;;5.30;3.00;;;;;;;22.58;41.49;98486.84;5059427;28;20178;-70
2022/07/09 07:16:55;;;;;;;5.73;2.37;;;;;;;22.65;41.55;98490.38;5061142;28;20443;-70
2022/07/09 07:19:23;;;;;;;5.50;2.23;;;;;;;22.88;41.83;98477.69;5069471;28;20186;-71
2022/07/09 07:21:49;;;;;;;3.83;2.20;;;;;;;23.12;41.26;98487.03;5075469;28;20268;-70
2022/07/09 07:24:15;;;;;;;3.03;2.37;;;;;;;23.35;40.79;98481.31;5071147;28;20498;-71
2022/07/09 07:26:40;;;;;;;3.67;2.23;;;;;;;23.52;40.64;98483.59;5070289;28;20224;-72
2022/07/09 07:29:06;;;;;;;6.73;2.20;;;;;;;23.54;38.06;98466.31;5070308;28;20627;-71
2022/07/09 07:31:32;;;;;;;4.30;1.93;;;;;;;23.63;38.21;98469.63;5075302;28;20657;-69
2022/07/09 07:33:59;;;;;;;6.53;2.03;;;;;;;23.53;36.98;98469.22;5070714;28;20194;-69
2022/07/09 07:36:25;;;;;;;3.40;1.80;;;;;;;23.62;37.22;98474.16;5071854;28;20211;-70
2022/07/09 07:38:51;;;;;;;4.90;1.80;;;;;;;23.77;38.22;98478.44;5069737;28;20424;-70
2022/07/09 07:41:16;;;;;;;5.33;1.90;;;;;;;23.92;37.26;98473.69;5070531;28;20227;-70
2022/07/09 07:43:42;;;;;;;2.90;1.73;;;;;;;24.06;35.89;98473.72;5070532;28;20186;-70
2022/07/09 07:46:07;;;;;;;7.27;1.97;;;;;;;24.15;36.55;98477.81;5070054;28;20350;-69
2022/07/09 07:48:35;;;;;;;6.47;2.50;;;;;;;24.29;36.74;98475.94;5070254;28;20178;-70
2022/07/09 07:51:02;;;;;;;3.40;1.90;;;;;;;24.39;36.89;98470.97;5070701;28;20564;-70
2022/07/09 07:53:30;;;;;;;5.23;2.20;;;;;;;24.48;36.79;98473.41;5070432;28;20438;-71
2022/07/09 07:55:56;;;;;;;5.53;1.80;;;;;;;24.62;36.85;98469.63;5070451;28;20536;-71
2022/07/09 07:58:21;;;;;;;4.03;1.60;;;;;;;24.79;36.41;98477.22;5069500;28;20872;-70
2022/07/09 08:00:47;;;;;;;3.63;2.00;;;;;;;24.95;35.59;98465.97;5069207;28;20629;-70
2022/07/09 08:03:12;;;;;;;5.10;2.00;;;;;;;25.12;35.91;98470.84;5069792;28;20198;-71
2022/07/09 08:05:38;;;;;;;4.03;1.83;;;;;;;25.26;35.06;98469.72;5075089;28;20287;-69
2022/07/09 08:08:03;;;;;;;4.40;2.40;;;;;;;25.43;35.40;98470.03;5073505;28;20190;-71
2022/07/09 08:10:29;;;;;;;8.97;2.07;;;;;;;25.63;35.15;98465.56;5068614;28;20178;-72
2022/07/09 08:12:54;;;;;;;5.73;1.87;;;;;;;25.78;34.72;98463.34;5072114;28;20186;-70
2022/07/09 08:15:21;;;;;;;4.90;1.90;;;;;;;25.96;34.47;98464.44;5069746;28;20179;-72
2022/07/09 08:17:46;;;;;;;5.23;1.70;;;;;;;26.09;34.74;98466.97;5069867;28;20190;-69
2022/07/09 08:20:11;;;;;;;5.77;1.40;;;;;;;26.24;34.19;98468.50;5067686;28;20427;-71
2022/07/09 08:22:37;;;;;;;3.43;1.37;;;;;;;26.34;34.46;98466.94;5065559;28;20548;-70
2022/07/09 08:25:04;;;;;;;3.70;1.40;;;;;;;26.48;34.43;98456.03;5070255;28;20205;-70
2022/07/09 08:27:29;;;;;;;4.30;1.50;;;;;;;26.53;34.31;98464.22;5065666;28;20195;-70
2022/07/09 08:29:55;;;;;;;4.07;1.43;;;;;;;26.58;34.45;98463.59;5070207;28;20439;-70
2022/07/09 08:32:20;;;;;;;2.70;1.40;;;;;;;26.62;34.76;98460.22;5063969;28;20191;-71
2022/07/09 08:34:46;;;;;;;3.47;1.20;;;;;;;26.68;34.67;98453.09;5068439;28;20198;-70
2022/07/09 08:37:11;;;;;;;3.47;1.20;;;;;;;26.80;34.42;98450.47;5074045;28;20206;-70
2022/07/09 08:39:37;;;;;;;4.07;1.50;;;;;;;26.94;34.23;98449.25;5072388;28;20243;-71
2022/07/09 08:42:08;;;;;;;5.07;1.33;;;;;;;27.05;33.95;98453.03;5080071;28;20259;-71
2022/07/09 08:44:35;;;;;;;5.90;1.50;;;;;;;27.18;33.31;98453.91;5069757;28;20428;-70
2022/07/09 08:47:01;;;;;;;2.13;1.40;;;;;;;27.31;33.01;98445.63;5073374;28;20468;-70
2022/07/09 08:49:28;;;;;;;3.33;1.27;;;;;;;27.33;32.12;98443.53;5073198;28;21005;-70
2022/07/09 08:51:55;;;;;;;2.77;1.47;;;;;;;27.40;32.39;98438.03;5072568;28;20182;-71
2022/07/09 08:54:20;;;;;;;5.00;2.00;;;;;;;27.52;32.47;98438.06;5072834;28;20424;-71
2022/07/09 08:56:46;;;;;;;2.97;1.60;;;;;;;27.69;32.68;98433.63;5072906;28;20449;-71
2022/07/09 08:59:11;;;;;;;5.77;1.97;;;;;;;27.78;32.02;98430.59;5071747;28;20269;-70
2022/07/09 09:01:37;;;;;;;5.50;1.57;;;;;;;27.91;31.30;98424.94;5073456;28;20265;-70
2022/07/09 09:04:02;;;;;;;4.07;1.60;;;;;;;27.94;31.68;98424.50;5072128;28;20282;-70
2022/07/09 09:06:28;;;;;;;5.53;1.63;;;;;;;27.93;31.11;98422.00;5072372;28;20214;-69
2022/07/09 09:08:55;;;;;;;7.43;1.87;;;;;;;28.07;31.84;98419.91;5073076;28;20872;-70
2022/07/09 09:11:23;;;;;;;5.60;1.33;;;;;;;28.15;31.50;98414.16;5073175;28;20190;-70
2022/07/09 09:13:49;;;;;;;5.13;1.40;;;;;;;28.24;31.51;98415.44;5073912;28;20463;-71
2022/07/09 09:16:16;;;;;;;2.97;1.40;;;;;;;28.39;31.15;98408.72;5072738;28;20452;-70
2022/07/09 09:18:43;;;;;;;5.40;1.50;;;;;;;28.53;30.82;98407.38;5072982;28;20435;-69
2022/07/09 09:21:10;;;;;;;3.13;1.67;;;;;;;28.65;30.55;98405.44;5078680;28;20863;-69
2022/07/09 09:23:40;;;;;;;2.93;1.47;;;;;;;28.67;30.38;98406.03;5073412;28;20945;-71
2022/07/09 09:26:13;;;;;;;3.70;2.30;;;;;;;28.60;30.85;98407.22;5072604;28;20845;-72
2022/07/09 09:29:00;;;;;;;2.70;2.17;;;;;;;28.63;30.76;98407.56;5072838;28;20437;-70
2022/07/09 09:31:32;;;;;;;3.87;1.33;;;;;;;28.55;30.12;98397.19;5075409;28;20440;-71
2022/07/09 09:34:11;;;;;;;5.50;1.60;;;;;;;28.34;30.57;98399.50;5068390;28;20501;-70
2022/07/09 09:36:41;;;;;;;4.70;2.83;;;;;;;28.42;31.01;98400.16;5069007;28;20492;-70
2022/07/09 09:39:20;;;;;;;11.63;3.47;;;;;;;28.59;31.20;98394.81;5072371;28;20476;-72
2022/07/09 09:41:50;;;;;;;3.03;2.70;;;;;;;28.58;31.41;98396.72;5070931;28;20898;-70
2022/07/09 09:44:26;;;;;;;5.97;1.77;;;;;;;28.67;30.62;98397.94;5074308;28;20432;-70
2022/07/09 09:46:53;;;;;;;5.10;3.67;;;;;;;28.87;30.97;98395.88;5066474;28;20979;-70
2022/07/09 09:49:19;;;;;;;7.10;2.77;;;;;;;29.16;30.99;98390.44;5072397;28;20425;-70
2022/07/09 09:51:50;;;;;;;6.50;3.10;;;;;;;29.38;29.57;98387.84;5072740;28;20420;-69
2022/07/09 09:54:17;;;;;;;2.63;1.47;;;;;;;29.46;28.79;98389.31;5072015;28;20845;-70
2022/07/09 09:56:43;;;;;;;4.10;1.40;;;;;;;29.27;28.72;98386.84;5070854;28;20436;-71
2022/07/09 09:59:12;;;;;;;4.23;1.90;;;;;;;29.32;29.42;98386.09;5071735;28;20482;-71
2022/07/09 10:01:39;;;;;;;1.73;1.60;;;;;;;29.58;29.30;98377.34;5072241;28;20491;-72
2022/07/09 10:04:06;;;;;;;3.17;1.40;;;;;;;29.75;28.75;98375.69;5072276;28;20799;-70
2022/07/09 10:06:33;;;;;;;2.60;1.40;;;;;;;29.93;28.61;98377.25;5071254;28;20468;-70
2022/07/09 10:09:01;;;;;;;4.63;2.00;;;;;;;30.09;28.54;98370.19;5070982;28;20436;-70
2022/07/09 10:11:47;;;;;;;5.23;1.50;;;;;;;30.13;27.93;98372.13;5072938;28;20939;-71
2022/07/09 10:14:24;;;;;;;2.07;1.23;;;;;;;30.33;26.95;98373.47;5069820;28;20912;-71
2022/07/09 10:16:51;;;;;;;3.50;2.00;;;;;;;30.35;27.73;98371.31;5071761;28;20448;-70
2022/07/09 10:19:32;;;;;;;3.20;1.40;;;;;;;30.37;26.43;98365.66;5068104;28;20470;-69
2022/07/09 10:21:59;;;;;;;3.73;1.27;;;;;;;30.12;26.84;98359.69;5071880;28;20450;-70
2022/07/09 10:24:26;;;;;;;2.90;0.90;;;;;;;29.95;27.41;98367.06;5071792;28;20445;-72
2022/07/09 10:26:52;;;;;;;3.07;1.33;;;;;;;30.12;27.88;98353.47;5071337;28;20468;-69
2022/07/09 10:29:21;;;;;;;3.87;2.10;;;;;;;30.30;27.61;98360.44;5071406;28;20446;-72
2022/07/09 10:31:47;;;;;;;9.97;2.77;;;;;;;30.58;27.50;98355.91;5075913;28;20559;-70
2022/07/09 10:34:34;;;;;;;3.33;1.17;;;;;;;30.57;26.46;98356.97;5071068;28;20455;-70
2022/07/09 10:37:02;;;;;;;4.77;1.30;;;;;;;30.38;26.17;98349.16;5073037;28;20476;-70
2022/07/09 10:39:29;;;;;;;1.40;1.07;;;;;;;30.25;26.86;98360.38;5071259;28;20935;-70
2022/07/09 10:42:19;;;;;;;2.93;1.70;;;;;;;30.04;28.05;98352.03;5074062;28;20428;-70
2022/07/09 10:44:46;;;;;;;7.73;1.40;;;;;;;30.12;27.15;98356.19;5068930;28;20436;-70
2022/07/09 10:47:12;;;;;;;1.83;1.20;;;;;;;30.06;27.14;98351.78;5070827;28;20559;-70
2022/07/09 10:49:38;;;;;;;2.03;1.40;;;;;;;30.04;26.75;98354.75;5071504;28;20467;-71
2022/07/09 10:52:05;;;;;;;4.00;1.50;;;;;;;30.23;27.75;98354.44;5071558;28;20481;-70
2022/07/09 10:54:31;;;;;;;15.23;12.93;;;;;;;30.41;27.34;98356.78;5071426;28;20448;-72
2022/07/09 10:56:57;;;;;;;6.63;5.60;;;;;;;30.64;26.77;98353.00;5069592;28;21159;-70
2022/07/09 10:59:23;;;;;;;2.73;2.20;;;;;;;30.53;26.03;98353.09;5069937;28;20223;-69
2022/07/09 11:01:50;;;;;;;4.60;4.17;;;;;;;30.37;26.50;98350.22;5070905;28;20420;-69
2022/07/09 11:04:25;;;;;;;4.63;1.77;;;;;;;30.10;27.02;98344.81;5071023;28;20428;-69
2022/07/09 11:06:51;;;;;;;3.10;1.60;;;;;;;30.09;27.09;98348.56;5070725;28;20460;-71
2022/07/09 11:09:16;;;;;;;3.63;1.70;;;;;;;30.03;26.86;98339.59;5068967;28;20435;-70
2022/07/09 11:11:43;;;;;;;1.77;1.67;;;;;;;29.77;27.64;98339.25;5072736;28;20625;-70
2022/07/09 11:14:11;;;;;;;3.30;1.20;;;;;;;29.51;27.89;98343.50;5070586;28;20556;-71
2022/07/09 11:16:37;;;;;;;2.50;1.10;;;;;;;29.25;27.49;98340.38;5070771;28;20502;-70
2022/07/09 11:19:16;;;;;;;4.50;1.50;;;;;;;29.02;28.72;98344.06;5065209;28;20861;-71
2022/07/09 11:21:42;;;;;;;4.63;2.93;;;;;;;29.02;28.95;98335.97;5064619;28;20428;-70
2022/07/09 11:24:18;;;;;;;7.20;2.60;;;;;;;28.94;29.42;98339.88;5070989;28;20429;-70
2022/07/09 11:26:44;;;;;;;2.10;2.00;;;;;;;28.85;29.42;98342.19;5070319;28;20300;-70
2022/07/09 11:29:10;;;;;;;5.47;4.50;;;;;;;28.77;29.59;98345.28;5070682;28;20543;-70
2022/07/09 11:31:36;;;;;;;3.33;2.70;;;;;;;28.66;30.20;98347.75;5075243;28;20637;-70